Progresso, New Mexico
Current Conditions -  °F | °C
As of 3:55 AM on Monday 20 Oct 2014 (Local Time) from K0E0 Reporting Station
Overcast Overcast  
Wind Chill: 35°   Ceiling: 6500
Heat Index: 39°   Visibility: 10mi
Dew Point: 35°   Wind: 5mph
Humidity: 88%   Direction: 330°NNW
Pressure: 30.23"   Gusts: NA
Location:  34.4464°N, 106.01°W
Report Text: K0E0 200955Z AUTO 33004KT 10SM OVC065 04/02 A3023 RMK AO2 T00380019
Loading
Personal Weather Stations






























Interactive Weather Map New forecast layout! Learn more

10-Day Weather Forecast

Advertisements
Track Severe Weather on mobile